sensor_id;sensor_type;location;lat;lon;timestamp;P1;durP1;ratioP1;P2;durP2;ratioP2
20067;SDS011;10194;50.824;7.134;2023-09-19T00:01:42;72.13;;;55.67;;
20067;SDS011;10194;50.824;7.134;2023-09-19T00:04:10;72.47;;;56.03;;
20067;SDS011;10194;50.824;7.134;2023-09-19T00:06:40;72.10;;;55.80;;
20067;SDS011;10194;50.824;7.134;2023-09-19T00:09:06;71.60;;;55.73;;
20067;SDS011;10194;50.824;7.134;2023-09-19T00:11:37;71.27;;;55.43;;
20067;SDS011;10194;50.824;7.134;2023-09-19T00:14:03;71.33;;;55.40;;
20067;SDS011;10194;50.824;7.134;2023-09-19T00:16:33;71.50;;;55.43;;
20067;SDS011;10194;50.824;7.134;2023-09-19T00:19:01;71.53;;;55.40;;
20067;SDS011;10194;50.824;7.134;2023-09-19T00:21:33;71.27;;;55.40;;
20067;SDS011;10194;50.824;7.134;2023-09-19T00:23:58;70.87;;;55.20;;
20067;SDS011;10194;50.824;7.134;2023-09-19T00:26:24;71.17;;;55.17;;
20067;SDS011;10194;50.824;7.134;2023-09-19T00:28:53;71.63;;;55.50;;
20067;SDS011;10194;50.824;7.134;2023-09-19T00:31:19;70.87;;;55.10;;
20067;SDS011;10194;50.824;7.134;2023-09-19T00:33:44;70.87;;;55.30;;
20067;SDS011;10194;50.824;7.134;2023-09-19T00:36:10;71.00;;;55.30;;
20067;SDS011;10194;50.824;7.134;2023-09-19T00:38:36;70.63;;;55.00;;
20067;SDS011;10194;50.824;7.134;2023-09-19T00:41:02;70.77;;;55.20;;
20067;SDS011;10194;50.824;7.134;2023-09-19T00:43:27;70.27;;;54.97;;
20067;SDS011;10194;50.824;7.134;2023-09-19T00:45:54;71.23;;;55.20;;
20067;SDS011;10194;50.824;7.134;2023-09-19T00:48:21;74.37;;;56.53;;
20067;SDS011;10194;50.824;7.134;2023-09-19T00:50:50;71.43;;;55.40;;
20067;SDS011;10194;50.824;7.134;2023-09-19T00:53:19;71.13;;;55.13;;
20067;SDS011;10194;50.824;7.134;2023-09-19T00:55:49;71.40;;;55.40;;
20067;SDS011;10194;50.824;7.134;2023-09-19T00:58:17;74.23;;;56.77;;
20067;SDS011;10194;50.824;7.134;2023-09-19T01:00:43;71.43;;;55.37;;
20067;SDS011;10194;50.824;7.134;2023-09-19T01:03:10;72.17;;;55.73;;
20067;SDS011;10194;50.824;7.134;2023-09-19T01:05:38;71.30;;;55.23;;
20067;SDS011;10194;50.824;7.134;2023-09-19T01:08:04;73.97;;;56.60;;
20067;SDS011;10194;50.824;7.134;2023-09-19T01:10:31;71.57;;;55.47;;
20067;SDS011;10194;50.824;7.134;2023-09-19T01:13:18;71.80;;;55.50;;
20067;SDS011;10194;50.824;7.134;2023-09-19T01:25:14;71.27;;;55.30;;
20067;SDS011;10194;50.824;7.134;2023-09-19T01:31:19;71.17;;;55.13;;
20067;SDS011;10194;50.824;7.134;2023-09-19T01:34:02;72.13;;;55.80;;
20067;SDS011;10194;50.824;7.134;2023-09-19T01:36:33;71.50;;;55.67;;
20067;SDS011;10194;50.824;7.134;2023-09-19T01:39:07;72.20;;;56.23;;
20067;SDS011;10194;50.824;7.134;2023-09-19T01:44:24;72.50;;;56.13;;
20067;SDS011;10194;50.824;7.134;2023-09-19T01:47:33;72.50;;;56.37;;
20067;SDS011;10194;50.824;7.134;2023-09-19T01:50:07;71.73;;;55.90;;
20067;SDS011;10194;50.824;7.134;2023-09-19T01:53:07;72.57;;;56.30;;
20067;SDS011;10194;50.824;7.134;2023-09-19T01:55:49;72.63;;;56.20;;
20067;SDS011;10194;50.824;7.134;2023-09-19T02:01:11;72.57;;;56.27;;
20067;SDS011;10194;50.824;7.134;2023-09-19T02:03:42;71.93;;;56.00;;
20067;SDS011;10194;50.824;7.134;2023-09-19T02:06:13;72.03;;;56.10;;
20067;SDS011;10194;50.824;7.134;2023-09-19T02:08:43;72.17;;;56.20;;
20067;SDS011;10194;50.824;7.134;2023-09-19T02:11:10;71.80;;;55.90;;
20067;SDS011;10194;50.824;7.134;2023-09-19T02:13:38;72.27;;;56.17;;
20067;SDS011;10194;50.824;7.134;2023-09-19T02:16:04;71.80;;;55.90;;
20067;SDS011;10194;50.824;7.134;2023-09-19T02:18:31;71.63;;;55.83;;
20067;SDS011;10194;50.824;7.134;2023-09-19T02:20:59;71.40;;;55.87;;
20067;SDS011;10194;50.824;7.134;2023-09-19T02:23:26;74.40;;;57.30;;
20067;SDS011;10194;50.824;7.134;2023-09-19T02:25:54;71.37;;;55.57;;
20067;SDS011;10194;50.824;7.134;2023-09-19T02:28:25;71.17;;;55.60;;
20067;SDS011;10194;50.824;7.134;2023-09-19T02:30:58;71.40;;;55.50;;
20067;SDS011;10194;50.824;7.134;2023-09-19T02:33:24;71.43;;;55.67;;
20067;SDS011;10194;50.824;7.134;2023-09-19T02:35:54;71.40;;;55.70;;
20067;SDS011;10194;50.824;7.134;2023-09-19T02:38:22;73.20;;;56.57;;
20067;SDS011;10194;50.824;7.134;2023-09-19T02:40:50;71.57;;;55.77;;
20067;SDS011;10194;50.824;7.134;2023-09-19T02:43:17;72.03;;;55.80;;
20067;SDS011;10194;50.824;7.134;2023-09-19T02:45:44;71.47;;;55.67;;
20067;SDS011;10194;50.824;7.134;2023-09-19T02:48:11;75.83;;;57.83;;
20067;SDS011;10194;50.824;7.134;2023-09-19T02:50:38;71.70;;;55.90;;
20067;SDS011;10194;50.824;7.134;2023-09-19T02:53:05;72.33;;;55.93;;
20067;SDS011;10194;50.824;7.134;2023-09-19T02:55:31;71.50;;;55.73;;
20067;SDS011;10194;50.824;7.134;2023-09-19T02:57:57;71.33;;;55.67;;
20067;SDS011;10194;50.824;7.134;2023-09-19T03:00:23;71.80;;;55.90;;
20067;SDS011;10194;50.824;7.134;2023-09-19T03:05:19;71.83;;;55.77;;
20067;SDS011;10194;50.824;7.134;2023-09-19T03:07:46;71.60;;;55.93;;
20067;SDS011;10194;50.824;7.134;2023-09-19T03:10:19;71.67;;;55.80;;
20067;SDS011;10194;50.824;7.134;2023-09-19T03:12:46;71.13;;;55.30;;
20067;SDS011;10194;50.824;7.134;2023-09-19T03:15:13;71.30;;;55.50;;
20067;SDS011;10194;50.824;7.134;2023-09-19T03:17:43;71.63;;;55.57;;
20067;SDS011;10194;50.824;7.134;2023-09-19T03:20:11;70.90;;;55.33;;
20067;SDS011;10194;50.824;7.134;2023-09-19T03:22:39;71.30;;;55.50;;
20067;SDS011;10194;50.824;7.134;2023-09-19T03:25:05;71.03;;;55.50;;
20067;SDS011;10194;50.824;7.134;2023-09-19T03:27:36;71.47;;;55.60;;
20067;SDS011;10194;50.824;7.134;2023-09-19T03:30:03;71.47;;;55.63;;
20067;SDS011;10194;50.824;7.134;2023-09-19T03:32:33;71.50;;;55.47;;
20067;SDS011;10194;50.824;7.134;2023-09-19T03:35:08;71.53;;;55.40;;
20067;SDS011;10194;50.824;7.134;2023-09-19T03:37:34;71.80;;;55.63;;
20067;SDS011;10194;50.824;7.134;2023-09-19T03:40:00;71.27;;;55.27;;
20067;SDS011;10194;50.824;7.134;2023-09-19T03:42:29;71.10;;;55.13;;
20067;SDS011;10194;50.824;7.134;2023-09-19T03:44:56;72.03;;;55.87;;
20067;SDS011;10194;50.824;7.134;2023-09-19T03:47:22;71.07;;;55.23;;
20067;SDS011;10194;50.824;7.134;2023-09-19T03:49:48;71.20;;;55.07;;
20067;SDS011;10194;50.824;7.134;2023-09-19T03:52:14;73.33;;;56.20;;
20067;SDS011;10194;50.824;7.134;2023-09-19T03:54:42;71.30;;;55.27;;
20067;SDS011;10194;50.824;7.134;2023-09-19T03:57:08;72.17;;;55.70;;
20067;SDS011;10194;50.824;7.134;2023-09-19T03:59:34;71.93;;;55.67;;
20067;SDS011;10194;50.824;7.134;2023-09-19T04:02:00;70.60;;;54.87;;
20067;SDS011;10194;50.824;7.134;2023-09-19T04:04:27;71.93;;;55.40;;
20067;SDS011;10194;50.824;7.134;2023-09-19T04:06:54;71.00;;;55.03;;
20067;SDS011;10194;50.824;7.134;2023-09-19T04:09:20;70.73;;;54.93;;
20067;SDS011;10194;50.824;7.134;2023-09-19T04:11:45;70.37;;;54.83;;
20067;SDS011;10194;50.824;7.134;2023-09-19T04:14:11;71.07;;;55.23;;
20067;SDS011;10194;50.824;7.134;2023-09-19T04:16:37;70.30;;;54.67;;
20067;SDS011;10194;50.824;7.134;2023-09-19T04:19:04;70.37;;;54.70;;
20067;SDS011;10194;50.824;7.134;2023-09-19T04:21:30;70.53;;;54.83;;
20067;SDS011;10194;50.824;7.134;2023-09-19T04:23:57;70.97;;;55.07;;
20067;SDS011;10194;50.824;7.134;2023-09-19T04:26:22;68.90;;;54.30;;
20067;SDS011;10194;50.824;7.134;2023-09-19T04:28:48;69.43;;;54.30;;
20067;SDS011;10194;50.824;7.134;2023-09-19T04:31:14;71.37;;;55.17;;
20067;SDS011;10194;50.824;7.134;2023-09-19T04:33:41;69.30;;;54.30;;
20067;SDS011;10194;50.824;7.134;2023-09-19T04:36:08;69.90;;;54.60;;
20067;SDS011;10194;50.824;7.134;2023-09-19T04:38:35;68.87;;;54.20;;
20067;SDS011;10194;50.824;7.134;2023-09-19T04:41:00;69.00;;;54.23;;
20067;SDS011;10194;50.824;7.134;2023-09-19T04:43:26;69.50;;;54.33;;
20067;SDS011;10194;50.824;7.134;2023-09-19T04:45:53;69.27;;;54.37;;
20067;SDS011;10194;50.824;7.134;2023-09-19T04:48:21;73.40;;;56.13;;
20067;SDS011;10194;50.824;7.134;2023-09-19T04:50:49;69.43;;;54.33;;
20067;SDS011;10194;50.824;7.134;2023-09-19T04:53:16;69.90;;;54.47;;
20067;SDS011;10194;50.824;7.134;2023-09-19T04:55:49;69.50;;;54.33;;
20067;SDS011;10194;50.824;7.134;2023-09-19T04:58:17;71.77;;;55.60;;
20067;SDS011;10194;50.824;7.134;2023-09-19T05:00:45;69.50;;;54.33;;
20067;SDS011;10194;50.824;7.134;2023-09-19T05:03:10;69.70;;;54.47;;
20067;SDS011;10194;50.824;7.134;2023-09-19T05:05:36;69.53;;;54.27;;
20067;SDS011;10194;50.824;7.134;2023-09-19T05:08:03;71.13;;;55.00;;
20067;SDS011;10194;50.824;7.134;2023-09-19T05:10:31;70.03;;;54.57;;
20067;SDS011;10194;50.824;7.134;2023-09-19T05:12:57;71.00;;;55.07;;
20067;SDS011;10194;50.824;7.134;2023-09-19T05:15:23;70.80;;;54.83;;
20067;SDS011;10194;50.824;7.134;2023-09-19T05:17:49;69.70;;;54.43;;
20067;SDS011;10194;50.824;7.134;2023-09-19T05:20:17;69.27;;;54.10;;
20067;SDS011;10194;50.824;7.134;2023-09-19T05:23:04;70.00;;;54.37;;
20067;SDS011;10194;50.824;7.134;2023-09-19T05:25:37;70.40;;;54.47;;
20067;SDS011;10194;50.824;7.134;2023-09-19T05:28:05;72.47;;;55.73;;
20067;SDS011;10194;50.824;7.134;2023-09-19T05:30:32;70.87;;;54.97;;
20067;SDS011;10194;50.824;7.134;2023-09-19T05:33:00;70.27;;;54.70;;
20067;SDS011;10194;50.824;7.134;2023-09-19T05:35:29;70.07;;;54.43;;
20067;SDS011;10194;50.824;7.134;2023-09-19T05:37:56;70.43;;;54.70;;
20067;SDS011;10194;50.824;7.134;2023-09-19T05:40:23;70.10;;;54.57;;
20067;SDS011;10194;50.824;7.134;2023-09-19T05:42:50;71.30;;;55.10;;
20067;SDS011;10194;50.824;7.134;2023-09-19T05:45:16;70.57;;;54.90;;
20067;SDS011;10194;50.824;7.134;2023-09-19T05:47:49;71.43;;;55.80;;
20067;SDS011;10194;50.824;7.134;2023-09-19T05:50:16;70.33;;;54.63;;
20067;SDS011;10194;50.824;7.134;2023-09-19T05:52:43;71.93;;;55.50;;
20067;SDS011;10194;50.824;7.134;2023-09-19T05:55:17;71.17;;;55.23;;
20067;SDS011;10194;50.824;7.134;2023-09-19T05:57:43;70.73;;;54.80;;
20067;SDS011;10194;50.824;7.134;2023-09-19T06:00:15;70.60;;;54.87;;
20067;SDS011;10194;50.824;7.134;2023-09-19T06:02:43;70.53;;;55.00;;
20067;SDS011;10194;50.824;7.134;2023-09-19T06:05:10;70.33;;;54.73;;
20067;SDS011;10194;50.824;7.134;2023-09-19T06:07:37;72.17;;;55.93;;
20067;SDS011;10194;50.824;7.134;2023-09-19T06:10:03;70.33;;;54.80;;
20067;SDS011;10194;50.824;7.134;2023-09-19T06:12:33;71.03;;;55.20;;
20067;SDS011;10194;50.824;7.134;2023-09-19T06:15:09;70.73;;;54.93;;
20067;SDS011;10194;50.824;7.134;2023-09-19T06:17:40;70.80;;;55.23;;
20067;SDS011;10194;50.824;7.134;2023-09-19T06:20:07;71.10;;;55.23;;
20067;SDS011;10194;50.824;7.134;2023-09-19T06:22:43;71.37;;;55.33;;
20067;SDS011;10194;50.824;7.134;2023-09-19T06:25:10;71.17;;;55.60;;
20067;SDS011;10194;50.824;7.134;2023-09-19T06:27:44;72.13;;;55.90;;
20067;SDS011;10194;50.824;7.134;2023-09-19T06:30:14;71.30;;;55.53;;
20067;SDS011;10194;50.824;7.134;2023-09-19T06:32:40;72.13;;;55.73;;
20067;SDS011;10194;50.824;7.134;2023-09-19T06:35:12;71.50;;;55.77;;
20067;SDS011;10194;50.824;7.134;2023-09-19T06:37:41;72.73;;;56.10;;
20067;SDS011;10194;50.824;7.134;2023-09-19T06:40:08;72.07;;;55.93;;
20067;SDS011;10194;50.824;7.134;2023-09-19T06:42:42;71.57;;;55.70;;
20067;SDS011;10194;50.824;7.134;2023-09-19T06:45:10;72.80;;;56.40;;
20067;SDS011;10194;50.824;7.134;2023-09-19T06:47:43;71.77;;;55.87;;
20067;SDS011;10194;50.824;7.134;2023-09-19T06:50:11;71.50;;;55.60;;
20067;SDS011;10194;50.824;7.134;2023-09-19T06:52:42;73.43;;;56.90;;
20067;SDS011;10194;50.824;7.134;2023-09-19T06:55:08;71.90;;;56.17;;
20067;SDS011;10194;50.824;7.134;2023-09-19T06:57:38;72.27;;;56.50;;
20067;SDS011;10194;50.824;7.134;2023-09-19T07:00:08;72.30;;;56.53;;
20067;SDS011;10194;50.824;7.134;2023-09-19T07:02:43;72.47;;;56.50;;
20067;SDS011;10194;50.824;7.134;2023-09-19T07:05:34;72.43;;;56.77;;
20067;SDS011;10194;50.824;7.134;2023-09-19T07:08:03;73.60;;;57.50;;
20067;SDS011;10194;50.824;7.134;2023-09-19T07:10:31;72.70;;;57.10;;
20067;SDS011;10194;50.824;7.134;2023-09-19T07:13:03;73.67;;;57.73;;
20067;SDS011;10194;50.824;7.134;2023-09-19T07:15:37;72.93;;;57.27;;
20067;SDS011;10194;50.824;7.134;2023-09-19T07:18:06;75.67;;;58.93;;
20067;SDS011;10194;50.824;7.134;2023-09-19T07:20:35;73.67;;;57.97;;
20067;SDS011;10194;50.824;7.134;2023-09-19T07:23:02;73.53;;;57.93;;
20067;SDS011;10194;50.824;7.134;2023-09-19T07:25:28;73.10;;;57.70;;
20067;SDS011;10194;50.824;7.134;2023-09-19T07:27:57;74.30;;;58.40;;
20067;SDS011;10194;50.824;7.134;2023-09-19T07:30:27;74.53;;;58.43;;
20067;SDS011;10194;50.824;7.134;2023-09-19T07:32:53;73.50;;;58.03;;
20067;SDS011;10194;50.824;7.134;2023-09-19T07:35:19;73.90;;;58.27;;
20067;SDS011;10194;50.824;7.134;2023-09-19T07:37:45;77.13;;;59.60;;
20067;SDS011;10194;50.824;7.134;2023-09-19T07:40:16;74.27;;;58.43;;
20067;SDS011;10194;50.824;7.134;2023-09-19T07:42:42;74.40;;;58.70;;
20067;SDS011;10194;50.824;7.134;2023-09-19T07:45:09;75.23;;;59.33;;
20067;SDS011;10194;50.824;7.134;2023-09-19T07:47:39;75.10;;;59.57;;
20067;SDS011;10194;50.824;7.134;2023-09-19T07:50:12;74.80;;;59.13;;
20067;SDS011;10194;50.824;7.134;2023-09-19T07:52:41;77.00;;;60.43;;
20067;SDS011;10194;50.824;7.134;2023-09-19T07:55:08;75.63;;;59.87;;
20067;SDS011;10194;50.824;7.134;2023-09-19T07:57:34;75.07;;;59.23;;
20067;SDS011;10194;50.824;7.134;2023-09-19T08:00:01;74.57;;;58.77;;
20067;SDS011;10194;50.824;7.134;2023-09-19T08:02:29;75.10;;;59.33;;
20067;SDS011;10194;50.824;7.134;2023-09-19T08:05:00;75.67;;;60.00;;
20067;SDS011;10194;50.824;7.134;2023-09-19T08:07:26;76.30;;;60.60;;
20067;SDS011;10194;50.824;7.134;2023-09-19T08:09:53;75.63;;;60.30;;
20067;SDS011;10194;50.824;7.134;2023-09-19T08:12:19;76.77;;;61.13;;
20067;SDS011;10194;50.824;7.134;2023-09-19T08:14:49;75.73;;;60.33;;
20067;SDS011;10194;50.824;7.134;2023-09-19T08:17:15;75.27;;;59.87;;
20067;SDS011;10194;50.824;7.134;2023-09-19T08:19:41;76.10;;;60.60;;
20067;SDS011;10194;50.824;7.134;2023-09-19T08:22:09;75.17;;;59.70;;
20067;SDS011;10194;50.824;7.134;2023-09-19T08:24:36;75.50;;;59.87;;
20067;SDS011;10194;50.824;7.134;2023-09-19T08:27:03;75.87;;;60.70;;
20067;SDS011;10194;50.824;7.134;2023-09-19T08:29:30;75.30;;;60.13;;
20067;SDS011;10194;50.824;7.134;2023-09-19T08:31:56;76.13;;;61.10;;
20067;SDS011;10194;50.824;7.134;2023-09-19T08:34:26;75.00;;;59.97;;
20067;SDS011;10194;50.824;7.134;2023-09-19T08:36:54;76.13;;;61.17;;
20067;SDS011;10194;50.824;7.134;2023-09-19T08:39:23;76.23;;;61.30;;
20067;SDS011;10194;50.824;7.134;2023-09-19T08:41:57;76.30;;;61.47;;
20067;SDS011;10194;50.824;7.134;2023-09-19T08:44:27;76.07;;;61.30;;
20067;SDS011;10194;50.824;7.134;2023-09-19T08:47:01;76.23;;;61.50;;
20067;SDS011;10194;50.824;7.134;2023-09-19T08:52:42;75.63;;;60.40;;
20067;SDS011;10194;50.824;7.134;2023-09-19T08:55:13;75.83;;;60.90;;
20067;SDS011;10194;50.824;7.134;2023-09-19T08:57:46;77.07;;;61.97;;
20067;SDS011;10194;50.824;7.134;2023-09-19T09:00:16;75.67;;;60.87;;
20067;SDS011;10194;50.824;7.134;2023-09-19T09:02:43;75.67;;;60.90;;
20067;SDS011;10194;50.824;7.134;2023-09-19T09:05:10;76.17;;;61.47;;
20067;SDS011;10194;50.824;7.134;2023-09-19T09:07:40;76.90;;;62.00;;
20067;SDS011;10194;50.824;7.134;2023-09-19T09:10:06;76.40;;;61.43;;
20067;SDS011;10194;50.824;7.134;2023-09-19T09:12:33;76.23;;;61.10;;
20067;SDS011;10194;50.824;7.134;2023-09-19T09:15:06;75.57;;;60.40;;
20067;SDS011;10194;50.824;7.134;2023-09-19T09:17:33;76.70;;;61.73;;
20067;SDS011;10194;50.824;7.134;2023-09-19T09:19:59;76.33;;;61.60;;
20067;SDS011;10194;50.824;7.134;2023-09-19T09:22:25;76.90;;;62.40;;
20067;SDS011;10194;50.824;7.134;2023-09-19T09:24:55;78.00;;;63.00;;
20067;SDS011;10194;50.824;7.134;2023-09-19T09:27:31;76.87;;;62.10;;
20067;SDS011;10194;50.824;7.134;2023-09-19T09:29:59;76.40;;;61.77;;
20067;SDS011;10194;50.824;7.134;2023-09-19T09:32:26;76.73;;;62.20;;
20067;SDS011;10194;50.824;7.134;2023-09-19T09:34:58;78.70;;;62.23;;
20067;SDS011;10194;50.824;7.134;2023-09-19T09:37:25;80.37;;;64.07;;
20067;SDS011;10194;50.824;7.134;2023-09-19T09:39:57;80.73;;;64.03;;
20067;SDS011;10194;50.824;7.134;2023-09-19T09:42:40;77.43;;;62.13;;
20067;SDS011;10194;50.824;7.134;2023-09-19T09:47:57;76.63;;;61.80;;
20067;SDS011;10194;50.824;7.134;2023-09-19T09:50:32;77.17;;;62.70;;
20067;SDS011;10194;50.824;7.134;2023-09-19T09:56:00;78.60;;;63.10;;
20067;SDS011;10194;50.824;7.134;2023-09-19T09:58:30;77.37;;;62.50;;
20067;SDS011;10194;50.824;7.134;2023-09-19T10:01:00;76.37;;;61.77;;
20067;SDS011;10194;50.824;7.134;2023-09-19T10:03:43;76.60;;;62.40;;
20067;SDS011;10194;50.824;7.134;2023-09-19T10:06:18;78.60;;;64.23;;
20067;SDS011;10194;50.824;7.134;2023-09-19T10:08:57;77.30;;;62.13;;
20067;SDS011;10194;50.824;7.134;2023-09-19T10:11:30;78.83;;;64.00;;
20067;SDS011;10194;50.824;7.134;2023-09-19T10:13:57;76.73;;;62.47;;
20067;SDS011;10194;50.824;7.134;2023-09-19T10:16:29;78.67;;;64.30;;
20067;SDS011;10194;50.824;7.134;2023-09-19T10:18:57;78.37;;;64.20;;
20067;SDS011;10194;50.824;7.134;2023-09-19T10:21:28;77.57;;;63.60;;
20067;SDS011;10194;50.824;7.134;2023-09-19T10:23:55;78.23;;;64.70;;
20067;SDS011;10194;50.824;7.134;2023-09-19T10:26:28;77.67;;;63.43;;
20067;SDS011;10194;50.824;7.134;2023-09-19T10:28:56;78.13;;;64.43;;
20067;SDS011;10194;50.824;7.134;2023-09-19T10:31:28;80.03;;;65.57;;
20067;SDS011;10194;50.824;7.134;2023-09-19T10:34:02;78.30;;;64.97;;
20067;SDS011;10194;50.824;7.134;2023-09-19T10:36:31;81.33;;;65.77;;
20067;SDS011;10194;50.824;7.134;2023-09-19T10:39:00;79.40;;;65.97;;
20067;SDS011;10194;50.824;7.134;2023-09-19T10:41:32;80.13;;;65.97;;
20067;SDS011;10194;50.824;7.134;2023-09-19T10:44:03;79.70;;;65.70;;
20067;SDS011;10194;50.824;7.134;2023-09-19T10:46:33;81.13;;;66.17;;
20067;SDS011;10194;50.824;7.134;2023-09-19T10:48:59;78.33;;;65.00;;
20067;SDS011;10194;50.824;7.134;2023-09-19T10:51:28;78.70;;;65.27;;
20067;SDS011;10194;50.824;7.134;2023-09-19T10:54:05;79.57;;;65.80;;
20067;SDS011;10194;50.824;7.134;2023-09-19T10:56:59;77.43;;;63.70;;
20067;SDS011;10194;50.824;7.134;2023-09-19T10:59:25;78.90;;;65.73;;
20067;SDS011;10194;50.824;7.134;2023-09-19T11:01:59;82.43;;;67.90;;
20067;SDS011;10194;50.824;7.134;2023-09-19T11:04:42;78.67;;;64.73;;
20067;SDS011;10194;50.824;7.134;2023-09-19T11:07:11;82.47;;;67.03;;
20067;SDS011;10194;50.824;7.134;2023-09-19T11:09:56;81.00;;;66.87;;
20067;SDS011;10194;50.824;7.134;2023-09-19T11:15:05;78.10;;;64.77;;
20067;SDS011;10194;50.824;7.134;2023-09-19T11:17:34;78.77;;;65.50;;
20067;SDS011;10194;50.824;7.134;2023-09-19T11:30:32;77.97;;;64.70;;
20067;SDS011;10194;50.824;7.134;2023-09-19T11:43:50;77.43;;;63.77;;
20067;SDS011;10194;50.824;7.134;2023-09-19T11:46:19;79.20;;;64.47;;
20067;SDS011;10194;50.824;7.134;2023-09-19T11:48:49;77.30;;;63.57;;
20067;SDS011;10194;50.824;7.134;2023-09-19T11:51:20;76.40;;;62.90;;
20067;SDS011;10194;50.824;7.134;2023-09-19T11:53:49;76.53;;;62.87;;
20067;SDS011;10194;50.824;7.134;2023-09-19T11:56:17;77.60;;;63.80;;
20067;SDS011;10194;50.824;7.134;2023-09-19T11:58:46;77.47;;;63.87;;
20067;SDS011;10194;50.824;7.134;2023-09-19T12:01:14;77.37;;;63.70;;
20067;SDS011;10194;50.824;7.134;2023-09-19T12:03:51;77.60;;;63.07;;
20067;SDS011;10194;50.824;7.134;2023-09-19T12:06:20;78.10;;;64.50;;
20067;SDS011;10194;50.824;7.134;2023-09-19T12:08:47;78.63;;;64.80;;
20067;SDS011;10194;50.824;7.134;2023-09-19T12:11:14;77.70;;;64.40;;
20067;SDS011;10194;50.824;7.134;2023-09-19T12:13:42;76.97;;;62.87;;
20067;SDS011;10194;50.824;7.134;2023-09-19T12:16:15;77.40;;;63.73;;
20067;SDS011;10194;50.824;7.134;2023-09-19T12:18:46;77.43;;;63.63;;
20067;SDS011;10194;50.824;7.134;2023-09-19T12:21:25;76.87;;;63.20;;
20067;SDS011;10194;50.824;7.134;2023-09-19T12:26:41;76.97;;;63.30;;
20067;SDS011;10194;50.824;7.134;2023-09-19T12:29:11;76.00;;;62.17;;
20067;SDS011;10194;50.824;7.134;2023-09-19T12:31:52;76.70;;;62.70;;
20067;SDS011;10194;50.824;7.134;2023-09-19T12:34:23;77.03;;;62.90;;
20067;SDS011;10194;50.824;7.134;2023-09-19T12:37:05;77.07;;;63.03;;
20067;SDS011;10194;50.824;7.134;2023-09-19T12:39:43;76.87;;;62.80;;
20067;SDS011;10194;50.824;7.134;2023-09-19T12:42:25;76.83;;;62.77;;
20067;SDS011;10194;50.824;7.134;2023-09-19T12:44:57;78.07;;;63.70;;
20067;SDS011;10194;50.824;7.134;2023-09-19T12:47:25;76.67;;;62.47;;
20067;SDS011;10194;50.824;7.134;2023-09-19T13:00:43;77.20;;;63.10;;
20067;SDS011;10194;50.824;7.134;2023-09-19T13:05:56;76.40;;;61.93;;
20067;SDS011;10194;50.824;7.134;2023-09-19T13:08:26;79.93;;;64.90;;
20067;SDS011;10194;50.824;7.134;2023-09-19T13:11:14;77.80;;;63.97;;
20067;SDS011;10194;50.824;7.134;2023-09-19T13:14:31;77.93;;;63.53;;
20067;SDS011;10194;50.824;7.134;2023-09-19T13:16:56;77.97;;;63.67;;
20067;SDS011;10194;50.824;7.134;2023-09-19T13:25:04;77.23;;;62.97;;
20067;SDS011;10194;50.824;7.134;2023-09-19T13:27:38;75.70;;;61.20;;
20067;SDS011;10194;50.824;7.134;2023-09-19T13:30:06;108.17;;;77.90;;
20067;SDS011;10194;50.824;7.134;2023-09-19T13:32:32;76.90;;;62.97;;
20067;SDS011;10194;50.824;7.134;2023-09-19T13:34:59;77.10;;;63.10;;
20067;SDS011;10194;50.824;7.134;2023-09-19T13:37:24;76.70;;;62.57;;
20067;SDS011;10194;50.824;7.134;2023-09-19T13:39:51;77.90;;;63.67;;
20067;SDS011;10194;50.824;7.134;2023-09-19T13:42:18;77.20;;;63.30;;
20067;SDS011;10194;50.824;7.134;2023-09-19T13:44:46;76.80;;;62.57;;
20067;SDS011;10194;50.824;7.134;2023-09-19T13:47:12;77.37;;;63.20;;
20067;SDS011;10194;50.824;7.134;2023-09-19T13:49:40;76.80;;;62.60;;
20067;SDS011;10194;50.824;7.134;2023-09-19T13:52:07;77.63;;;63.30;;
20067;SDS011;10194;50.824;7.134;2023-09-19T13:54:33;76.90;;;62.53;;
20067;SDS011;10194;50.824;7.134;2023-09-19T13:57:00;76.70;;;62.63;;
20067;SDS011;10194;50.824;7.134;2023-09-19T13:59:26;78.10;;;64.00;;
20067;SDS011;10194;50.824;7.134;2023-09-19T14:01:53;76.93;;;62.60;;
20067;SDS011;10194;50.824;7.134;2023-09-19T14:04:19;78.73;;;64.57;;
20067;SDS011;10194;50.824;7.134;2023-09-19T14:06:47;77.27;;;63.03;;
20067;SDS011;10194;50.824;7.134;2023-09-19T14:09:13;77.80;;;64.27;;
20067;SDS011;10194;50.824;7.134;2023-09-19T14:11:39;77.83;;;63.90;;
20067;SDS011;10194;50.824;7.134;2023-09-19T14:14:05;76.37;;;62.40;;
20067;SDS011;10194;50.824;7.134;2023-09-19T14:16:31;77.60;;;63.67;;
20067;SDS011;10194;50.824;7.134;2023-09-19T14:18:57;77.90;;;64.00;;
20067;SDS011;10194;50.824;7.134;2023-09-19T14:21:23;76.70;;;62.93;;
20067;SDS011;10194;50.824;7.134;2023-09-19T14:23:49;79.57;;;65.10;;
20067;SDS011;10194;50.824;7.134;2023-09-19T14:26:15;79.03;;;64.70;;
20067;SDS011;10194;50.824;7.134;2023-09-19T14:28:41;77.20;;;63.60;;
20067;SDS011;10194;50.824;7.134;2023-09-19T14:31:08;78.47;;;64.90;;
20067;SDS011;10194;50.824;7.134;2023-09-19T14:33:35;77.97;;;64.30;;
20067;SDS011;10194;50.824;7.134;2023-09-19T14:36:05;78.57;;;64.87;;
20067;SDS011;10194;50.824;7.134;2023-09-19T14:38:33;78.03;;;64.43;;
20067;SDS011;10194;50.824;7.134;2023-09-19T14:41:02;78.47;;;65.23;;
20067;SDS011;10194;50.824;7.134;2023-09-19T14:43:30;77.70;;;64.50;;
20067;SDS011;10194;50.824;7.134;2023-09-19T14:45:57;78.23;;;65.03;;
20067;SDS011;10194;50.824;7.134;2023-09-19T14:48:36;77.90;;;64.67;;
20067;SDS011;10194;50.824;7.134;2023-09-19T14:51:02;79.00;;;65.63;;
20067;SDS011;10194;50.824;7.134;2023-09-19T14:53:29;78.40;;;65.47;;
20067;SDS011;10194;50.824;7.134;2023-09-19T14:55:56;78.40;;;65.97;;
20067;SDS011;10194;50.824;7.134;2023-09-19T14:58:27;77.73;;;64.40;;
20067;SDS011;10194;50.824;7.134;2023-09-19T15:01:01;76.43;;;62.80;;
20067;SDS011;10194;50.824;7.134;2023-09-19T15:03:32;77.70;;;63.97;;
20067;SDS011;10194;50.824;7.134;2023-09-19T15:06:03;78.67;;;65.10;;
20067;SDS011;10194;50.824;7.134;2023-09-19T15:08:30;79.00;;;65.10;;
20067;SDS011;10194;50.824;7.134;2023-09-19T15:11:00;78.20;;;64.00;;
20067;SDS011;10194;50.824;7.134;2023-09-19T15:13:30;77.17;;;63.33;;
20067;SDS011;10194;50.824;7.134;2023-09-19T15:16:03;77.50;;;63.60;;
20067;SDS011;10194;50.824;7.134;2023-09-19T15:18:34;77.23;;;63.10;;
20067;SDS011;10194;50.824;7.134;2023-09-19T15:21:05;78.57;;;64.33;;
20067;SDS011;10194;50.824;7.134;2023-09-19T15:23:35;76.37;;;62.47;;
20067;SDS011;10194;50.824;7.134;2023-09-19T15:26:06;78.50;;;64.57;;
20067;SDS011;10194;50.824;7.134;2023-09-19T15:28:34;77.60;;;63.50;;
20067;SDS011;10194;50.824;7.134;2023-09-19T15:31:02;77.23;;;63.20;;
20067;SDS011;10194;50.824;7.134;2023-09-19T15:33:36;78.47;;;63.87;;
20067;SDS011;10194;50.824;7.134;2023-09-19T15:36:03;77.33;;;63.33;;
20067;SDS011;10194;50.824;7.134;2023-09-19T15:38:30;77.23;;;63.13;;
20067;SDS011;10194;50.824;7.134;2023-09-19T15:41:00;77.40;;;62.80;;
20067;SDS011;10194;50.824;7.134;2023-09-19T15:43:26;77.40;;;63.60;;
20067;SDS011;10194;50.824;7.134;2023-09-19T15:45:51;76.87;;;62.67;;
20067;SDS011;10194;50.824;7.134;2023-09-19T15:48:17;79.53;;;64.07;;
20067;SDS011;10194;50.824;7.134;2023-09-19T15:50:46;76.93;;;62.77;;